createdAt,value
2018-03-27T00:02:07.610Z,101519.65
2018-03-27T00:04:33.635Z,101518.89
2018-03-27T00:06:59.688Z,101510.54
2018-03-27T00:09:25.837Z,101512.08
2018-03-27T00:11:51.977Z,101514.03
2018-03-27T00:14:18.011Z,101505.21
2018-03-27T00:16:44.008Z,101501.81
2018-03-27T00:19:10.042Z,101501.02
2018-03-27T00:21:36.076Z,101494.55
2018-03-27T00:24:02.074Z,101498.89
2018-03-27T00:26:28.192Z,101491.39
2018-03-27T00:29:06.484Z,101489.64
2018-03-27T00:31:44.694Z,101493.05
2018-03-27T00:34:22.809Z,101483.75
2018-03-27T00:37:00.939Z,101484.55
2018-03-27T00:39:38.960Z,101479.22
2018-03-27T00:42:20.700Z,101480.02
2018-03-27T00:44:46.692Z,101480.20
2018-03-27T00:47:12.687Z,101480.87
2018-03-27T00:49:38.692Z,101477.80
2018-03-27T00:52:04.695Z,101467.19
2018-03-27T00:54:30.694Z,101462.98
2018-03-27T00:56:56.707Z,101464.78
2018-03-27T00:59:22.728Z,101464.64
2018-03-27T01:01:48.729Z,101469.62
2018-03-27T01:04:14.721Z,101457.50
2018-03-27T01:06:40.721Z,101460.94
2018-03-27T01:09:06.725Z,101462.14
2018-03-27T01:11:32.716Z,101460.06
2018-03-27T01:13:58.789Z,101455.91
2018-03-27T01:16:24.785Z,101454.63
2018-03-27T01:18:50.786Z,101449.78
2018-03-27T01:21:16.763Z,101447.79
2018-03-27T01:23:42.814Z,101445.95
2018-03-27T01:26:08.832Z,101443.63
2018-03-27T01:28:35.602Z,101441.85
2018-03-27T01:31:01.699Z,101445.52
2018-03-27T01:33:27.703Z,101440.98
2018-03-27T01:35:53.722Z,101441.03
2018-03-27T01:38:19.846Z,101433.78
2018-03-27T01:40:45.876Z,101429.86
2018-03-27T01:43:11.900Z,101432.41
2018-03-27T01:45:37.895Z,101422.60
2018-03-27T01:48:03.958Z,101425.53
2018-03-27T01:50:30.096Z,101419.92
2018-03-27T01:52:56.107Z,101416.52
2018-03-27T01:55:22.133Z,101414.69
2018-03-27T01:57:48.695Z,101413.66
2018-03-27T02:00:14.708Z,101406.82
2018-03-27T02:02:40.725Z,101407.44
2018-03-27T02:05:06.722Z,101400.38
2018-03-27T02:07:32.723Z,101396.88
2018-03-27T02:09:58.744Z,101389.63
2018-03-27T02:12:30.643Z,101387.96
2018-03-27T02:15:02.649Z,101392.89
2018-03-27T02:17:34.643Z,101384.77
2018-03-27T02:20:06.677Z,101379.14
2018-03-27T02:22:33.602Z,101377.84
2018-03-27T02:24:59.709Z,101377.64
2018-03-27T02:27:25.835Z,101382.16
2018-03-27T02:29:51.821Z,101377.15
2018-03-27T02:32:17.913Z,101374.69
2018-03-27T02:34:44.146Z,101373.46
2018-03-27T02:37:10.303Z,101373.91
2018-03-27T02:39:36.364Z,101369.10
2018-03-27T02:42:02.378Z,101365.84
2018-03-27T02:44:28.407Z,101359.11
2018-03-27T02:46:54.468Z,101360.09
2018-03-27T02:49:20.466Z,101361.48
2018-03-27T02:51:46.462Z,101358.06
2018-03-27T02:54:12.508Z,101354.50
2018-03-27T02:56:38.517Z,101348.09
2018-03-27T02:59:04.529Z,101351.75
2018-03-27T03:01:30.577Z,101345.81
2018-03-27T03:03:56.589Z,101336.30
2018-03-27T03:06:22.569Z,101337.41
2018-03-27T03:08:48.712Z,101332.09
2018-03-27T03:11:14.726Z,101328.70
2018-03-27T03:13:40.710Z,101328.14
2018-03-27T03:16:06.718Z,101323.67
2018-03-27T03:18:32.701Z,101324.26
2018-03-27T03:20:58.701Z,101323.09
2018-03-27T03:23:24.697Z,101326.98
2018-03-27T03:25:50.689Z,101318.50
2018-03-27T03:28:16.714Z,101314.72
2018-03-27T03:30:42.701Z,101309.33
2018-03-27T03:33:08.712Z,101314.05
2018-03-27T03:35:34.708Z,101307.55
2018-03-27T03:38:00.695Z,101309.44
2018-03-27T03:40:26.673Z,101298.23
2018-03-27T03:42:52.685Z,101294.08
2018-03-27T03:45:18.662Z,101290.70
2018-03-27T03:47:44.644Z,101292.30
2018-03-27T03:50:10.706Z,101292.62
2018-03-27T03:52:36.725Z,101292.16
2018-03-27T03:55:02.709Z,101284.61
2018-03-27T03:57:28.695Z,101288.95
2018-03-27T03:59:54.673Z,101284.70
2018-03-27T04:02:20.735Z,101290.83
2018-03-27T04:04:46.725Z,101285.69
2018-03-27T04:07:12.760Z,101281.26
2018-03-27T04:09:38.741Z,101282.71
2018-03-27T04:12:04.711Z,101283.46
2018-03-27T04:14:30.766Z,101282.09
2018-03-27T04:16:56.796Z,101278.19
2018-03-27T04:19:22.809Z,101272.80
2018-03-27T04:21:48.773Z,101271.20
2018-03-27T04:24:14.750Z,101273.87
2018-03-27T04:26:40.746Z,101270.75
2018-03-27T04:29:06.705Z,101266.74
2018-03-27T04:31:32.720Z,101264.85
2018-03-27T04:33:58.713Z,101253.66
2018-03-27T04:36:24.713Z,101252.95
2018-03-27T04:38:50.718Z,101257.33
2018-03-27T04:41:16.711Z,101251.30
2018-03-27T04:43:42.695Z,101254.21
2018-03-27T04:46:08.748Z,101248.41
2018-03-27T04:48:34.756Z,101244.12
2018-03-27T04:51:00.811Z,101247.98
2018-03-27T04:53:26.801Z,101241.53
2018-03-27T04:55:52.800Z,101241.31
2018-03-27T04:58:18.796Z,101239.05
2018-03-27T05:00:44.791Z,101235.55
2018-03-27T05:03:10.766Z,101230.84
2018-03-27T05:05:36.796Z,101232.64
2018-03-27T05:08:02.824Z,101223.82
2018-03-27T05:10:28.818Z,101220.85
2018-03-27T05:12:54.817Z,101220.91
2018-03-27T05:15:22.075Z,101218.53
2018-03-27T05:17:48.163Z,101213.83
2018-03-27T05:20:14.191Z,101213.08
2018-03-27T05:22:40.230Z,101208.33
2018-03-27T05:25:06.278Z,101210.59
2018-03-27T05:27:32.472Z,101202.34
2018-03-27T05:29:58.565Z,101202.07
2018-03-27T05:32:24.975Z,101196.41
2018-03-27T05:34:50.966Z,101199.83
2018-03-27T05:37:16.984Z,101196.91
2018-03-27T05:39:43.012Z,101187.00
2018-03-27T05:42:09.079Z,101196.86
2018-03-27T05:44:35.098Z,101193.75
2018-03-27T05:47:01.081Z,101190.06
2018-03-27T05:49:27.078Z,101186.70
2018-03-27T05:51:53.103Z,101188.79
2018-03-27T05:54:19.208Z,101184.03
2018-03-27T05:56:45.474Z,101175.72
2018-03-27T05:59:11.546Z,101178.36
2018-03-27T06:01:38.001Z,101177.06
2018-03-27T06:04:04.450Z,101172.80
2018-03-27T06:06:30.446Z,101168.94
2018-03-27T06:08:56.475Z,101163.26
2018-03-27T06:11:22.441Z,101152.72
2018-03-27T06:13:48.427Z,101150.14
2018-03-27T06:16:14.518Z,101142.23
2018-03-27T06:18:40.553Z,101141.80
2018-03-27T06:21:06.532Z,101136.38
2018-03-27T06:23:32.545Z,101137.63
2018-03-27T06:25:58.557Z,101137.10
2018-03-27T06:28:24.562Z,101134.73
2018-03-27T06:30:50.546Z,101132.14
2018-03-27T06:33:16.603Z,101126.98
2018-03-27T06:35:42.609Z,101125.80
2018-03-27T06:38:08.598Z,101119.70
2018-03-27T06:40:34.638Z,101116.02
2018-03-27T06:43:00.665Z,101110.48
2018-03-27T06:45:26.666Z,101102.03
2018-03-27T06:47:54.127Z,101095.97
2018-03-27T06:50:20.122Z,101097.45
2018-03-27T06:52:46.358Z,101098.27
2018-03-27T06:55:12.389Z,101094.94
2018-03-27T06:57:38.512Z,101089.47
2018-03-27T07:00:04.509Z,101085.02
2018-03-27T07:02:30.566Z,101085.34
2018-03-27T07:04:56.568Z,101085.76
2018-03-27T07:07:22.642Z,101078.11
2018-03-27T07:09:48.725Z,101077.27
2018-03-27T07:12:14.777Z,101080.44
2018-03-27T07:14:40.827Z,101073.69
2018-03-27T07:17:06.989Z,101074.73
2018-03-27T07:19:33.247Z,101065.05
2018-03-27T07:21:59.259Z,101070.98
2018-03-27T07:24:25.250Z,101064.59
2018-03-27T07:26:51.282Z,101055.19
2018-03-27T07:29:17.310Z,101053.08
2018-03-27T07:31:43.455Z,101058.62
2018-03-27T07:34:09.515Z,101059.16
2018-03-27T07:36:36.177Z,101048.45
2018-03-27T07:39:02.274Z,101044.69
2018-03-27T07:41:28.331Z,101044.31
2018-03-27T07:43:54.447Z,101042.58
2018-03-27T07:46:20.569Z,101045.34
2018-03-27T07:48:46.575Z,101043.27
2018-03-27T07:51:12.564Z,101037.89
2018-03-27T07:53:38.563Z,101034.15
2018-03-27T07:56:04.590Z,101036.58
2018-03-27T07:58:30.607Z,101028.54
2018-03-27T08:00:56.653Z,101032.40
2018-03-27T08:03:22.718Z,101028.66
2018-03-27T08:05:48.807Z,101028.12
2018-03-27T08:08:14.814Z,101019.31
2018-03-27T08:10:40.874Z,101010.73
2018-03-27T08:13:06.903Z,101007.02
2018-03-27T08:15:32.924Z,101013.45
2018-03-27T08:17:58.980Z,101010.47
2018-03-27T08:20:25.673Z,101003.97
2018-03-27T08:22:51.769Z,101005.23
2018-03-27T08:25:17.792Z,101014.88
2018-03-27T08:27:43.838Z,101005.36
2018-03-27T08:30:09.956Z,101006.91
2018-03-27T08:32:37.034Z,101001.75
2018-03-27T08:35:03.103Z,100992.86
2018-03-27T08:37:29.130Z,100981.56
2018-03-27T08:39:55.157Z,100979.63
2018-03-27T08:42:21.182Z,100978.61
2018-03-27T08:44:47.266Z,100978.42
2018-03-27T08:47:13.340Z,100969.88
2018-03-27T08:49:39.353Z,100972.16
2018-03-27T08:52:05.368Z,100969.25
2018-03-27T08:54:31.376Z,100973.45
2018-03-27T08:56:57.379Z,100962.72
2018-03-27T08:59:23.458Z,100960.50
2018-03-27T09:01:49.571Z,100960.58
2018-03-27T09:04:15.656Z,100959.77
2018-03-27T09:06:41.668Z,100958.95
2018-03-27T09:09:07.726Z,100961.59
2018-03-27T09:11:33.933Z,100953.02
2018-03-27T09:14:00.081Z,100942.09
2018-03-27T09:16:26.212Z,100944.09
2018-03-27T09:18:52.247Z,100946.24
2018-03-27T09:21:18.291Z,100939.77
2018-03-27T09:23:45.293Z,100928.27
2018-03-27T09:26:11.446Z,100936.62
2018-03-27T09:28:37.539Z,100934.67
2018-03-27T09:31:03.546Z,100934.67
2018-03-27T09:33:29.647Z,100933.04
2018-03-27T09:35:55.688Z,100931.84
2018-03-27T09:38:21.752Z,100937.30
2018-03-27T09:40:47.737Z,100924.54
2018-03-27T09:43:13.871Z,100927.84
2018-03-27T09:45:39.895Z,100931.97
2018-03-27T09:48:05.906Z,100926.66
2018-03-27T09:50:31.954Z,100930.53
2018-03-27T09:52:58.018Z,100915.53
2018-03-27T09:55:24.591Z,100913.11
2018-03-27T09:57:50.606Z,100915.19
2018-03-27T10:00:16.751Z,100916.97
2018-03-27T10:02:42.793Z,100914.34
2018-03-27T10:05:08.881Z,100912.42
2018-03-27T10:07:34.898Z,100911.30
2018-03-27T10:10:00.913Z,100904.00
2018-03-27T10:12:26.936Z,100897.80
2018-03-27T10:14:52.977Z,100899.92
2018-03-27T10:17:18.986Z,100899.80
2018-03-27T10:19:45.035Z,100894.29
2018-03-27T10:22:11.184Z,100888.66
2018-03-27T10:24:37.831Z,100884.91
2018-03-27T10:27:04.002Z,100880.25
2018-03-27T10:29:30.018Z,100877.31
2018-03-27T10:31:56.053Z,100876.65
2018-03-27T10:34:22.215Z,100868.97
2018-03-27T10:36:48.266Z,100870.64
2018-03-27T10:39:14.272Z,100860.34
2018-03-27T10:41:40.249Z,100864.02
2018-03-27T10:44:06.368Z,100860.80
2018-03-27T10:46:32.382Z,100858.95
2018-03-27T10:48:58.392Z,100855.55
2018-03-27T10:51:24.470Z,100841.04
2018-03-27T10:53:50.539Z,100846.10
2018-03-27T10:56:16.567Z,100842.94
2018-03-27T10:58:42.638Z,100841.02
2018-03-27T11:01:08.733Z,100844.09
2018-03-27T11:03:34.742Z,100843.02
2018-03-27T11:06:00.764Z,100834.97
2018-03-27T11:08:26.775Z,100825.33
2018-03-27T11:10:52.763Z,100827.99
2018-03-27T11:13:18.837Z,100821.87
2018-03-27T11:15:44.899Z,100827.70
2018-03-27T11:18:10.999Z,100813.52
2018-03-27T11:20:37.093Z,100805.89
2018-03-27T11:23:03.112Z,100799.52
2018-03-27T11:25:29.098Z,100787.59
2018-03-27T11:27:55.138Z,100785.42
2018-03-27T11:30:21.181Z,100777.85
2018-03-27T11:32:47.264Z,100775.53
2018-03-27T11:35:13.339Z,100779.58
2018-03-27T11:37:39.439Z,100782.22
2018-03-27T11:40:05.500Z,100775.91
2018-03-27T11:42:31.558Z,100768.19
2018-03-27T11:44:57.669Z,100762.61
2018-03-27T11:47:23.703Z,100763.77
2018-03-27T11:49:49.694Z,100752.65
2018-03-27T11:52:15.869Z,100747.93
2018-03-27T11:54:42.053Z,100749.70
2018-03-27T11:57:08.146Z,100746.53
2018-03-27T11:59:34.174Z,100740.66
2018-03-27T12:02:00.206Z,100745.17
2018-03-27T12:04:26.322Z,100737.97
2018-03-27T12:06:52.421Z,100735.31
2018-03-27T12:09:18.420Z,100737.84
2018-03-27T12:11:44.438Z,100738.83
2018-03-27T12:14:10.486Z,100736.63
2018-03-27T12:16:36.506Z,100731.34
2018-03-27T12:19:02.513Z,100718.86
2018-03-27T12:21:28.586Z,100721.15
2018-03-27T12:23:54.586Z,100720.25
2018-03-27T12:26:20.596Z,100720.40
2018-03-27T12:28:46.612Z,100715.73
2018-03-27T12:31:12.633Z,100709.80
2018-03-27T12:33:38.658Z,100713.57
2018-03-27T12:36:04.730Z,100705.31
2018-03-27T12:38:30.846Z,100700.69
2018-03-27T12:40:56.858Z,100701.76
2018-03-27T12:43:22.874Z,100699.88
2018-03-27T12:45:48.873Z,100692.67
2018-03-27T12:48:14.875Z,100690.97
2018-03-27T12:50:40.904Z,100683.12
2018-03-27T12:53:06.922Z,100687.61
2018-03-27T12:55:32.943Z,100684.87
2018-03-27T12:57:58.920Z,100677.98
2018-03-27T13:00:24.942Z,100669.83
2018-03-27T13:02:50.994Z,100673.33
2018-03-27T13:05:17.014Z,100668.72
2018-03-27T13:07:43.058Z,100659.13
2018-03-27T13:10:09.209Z,100656.68
2018-03-27T13:12:35.242Z,100652.13
2018-03-27T13:15:02.041Z,100652.76
2018-03-27T13:17:35.063Z,100643.33
2018-03-27T13:20:01.141Z,100632.76
2018-03-27T13:22:27.189Z,100628.35
2018-03-27T13:24:53.836Z,100620.02
2018-03-27T13:27:19.990Z,100618.42
2018-03-27T13:29:46.048Z,100608.12
2018-03-27T13:32:12.154Z,100610.16
2018-03-27T13:34:39.098Z,100600.70
2018-03-27T13:37:05.129Z,100599.80
2018-03-27T13:39:31.894Z,100601.19
2018-03-27T13:41:58.058Z,100591.53
2018-03-27T13:44:24.194Z,100590.05
2018-03-27T13:46:50.301Z,100589.99
2018-03-27T13:49:16.344Z,100581.02
2018-03-27T13:51:42.420Z,100582.86
2018-03-27T13:54:08.662Z,100576.47
2018-03-27T13:56:34.671Z,100575.59
2018-03-27T13:59:00.678Z,100572.34
2018-03-27T14:01:26.744Z,100567.73
2018-03-27T14:03:52.758Z,100564.45
2018-03-27T14:06:18.769Z,100557.80
2018-03-27T14:08:44.829Z,100556.41
2018-03-27T14:11:10.839Z,100551.41
2018-03-27T14:13:36.828Z,100544.45
2018-03-27T14:16:02.870Z,100540.17
2018-03-27T14:18:28.919Z,100531.55
2018-03-27T14:20:54.930Z,100524.18
2018-03-27T14:23:20.965Z,100522.38
2018-03-27T14:25:47.000Z,100519.84
2018-03-27T14:28:12.995Z,100512.95
2018-03-27T14:30:39.062Z,100514.80
2018-03-27T14:33:05.043Z,100523.44
2018-03-27T14:35:31.064Z,100525.00
2018-03-27T14:37:57.108Z,100516.81
2018-03-27T14:40:23.157Z,100515.44
2018-03-27T14:42:49.193Z,100508.10
2018-03-27T14:45:15.292Z,100505.14
2018-03-27T14:47:41.293Z,100503.59
2018-03-27T14:50:07.363Z,100503.39
2018-03-27T14:52:33.622Z,100492.08
2018-03-27T14:54:59.764Z,100496.70
2018-03-27T14:57:25.829Z,100492.22
2018-03-27T14:59:51.877Z,100486.62
2018-03-27T15:02:17.968Z,100479.14
2018-03-27T15:04:44.043Z,100475.00
2018-03-27T15:07:10.100Z,100473.05
2018-03-27T15:09:36.118Z,100466.60
2018-03-27T15:12:02.643Z,100461.23
2018-03-27T15:14:28.687Z,100464.44
2018-03-27T15:16:54.723Z,100464.51
2018-03-27T15:19:20.766Z,100463.06
2018-03-27T15:21:46.804Z,100460.53
2018-03-27T15:24:12.818Z,100457.38
2018-03-27T15:26:38.914Z,100450.09
2018-03-27T15:29:04.981Z,100438.98
2018-03-27T15:31:31.010Z,100437.63
2018-03-27T15:33:57.034Z,100431.69
2018-03-27T15:36:23.507Z,100424.70
2018-03-27T15:38:49.530Z,100417.78
2018-03-27T15:41:15.629Z,100415.96
2018-03-27T15:43:41.734Z,100417.14
2018-03-27T15:46:07.750Z,100412.05
2018-03-27T15:48:33.813Z,100410.53
2018-03-27T15:51:00.470Z,100408.42
2018-03-27T15:53:26.509Z,100404.63
2018-03-27T15:55:52.547Z,100393.23
2018-03-27T15:58:18.601Z,100397.45
2018-03-27T16:00:44.614Z,100401.14
2018-03-27T16:03:10.643Z,100402.98
2018-03-27T16:05:36.736Z,100391.64
2018-03-27T16:08:02.744Z,100390.27
2018-03-27T16:10:28.801Z,100384.73
2018-03-27T16:12:54.883Z,100383.80
2018-03-27T16:15:20.904Z,100376.73
2018-03-27T16:17:46.922Z,100374.27
2018-03-27T16:20:12.966Z,100369.65
2018-03-27T16:22:38.999Z,100374.95
2018-03-27T16:25:05.021Z,100371.23
2018-03-27T16:27:31.118Z,100369.56
2018-03-27T16:29:57.105Z,100373.30
2018-03-27T16:32:23.189Z,100371.83
2018-03-27T16:34:49.307Z,100368.27
2018-03-27T16:37:16.325Z,100363.88
2018-03-27T16:39:42.355Z,100369.69
2018-03-27T16:42:08.540Z,100363.86
2018-03-27T16:44:35.613Z,100370.02
2018-03-27T16:47:01.758Z,100364.84
2018-03-27T16:49:27.840Z,100363.39
2018-03-27T16:51:53.850Z,100356.67
2018-03-27T16:54:19.920Z,100352.66
2018-03-27T16:56:46.036Z,100353.86
2018-03-27T16:59:12.121Z,100346.09
2018-03-27T17:01:38.169Z,100353.08
2018-03-27T17:04:04.243Z,100348.08
2018-03-27T17:06:30.351Z,100344.93
2018-03-27T17:08:56.444Z,100347.44
2018-03-27T17:11:22.459Z,100343.18
2018-03-27T17:13:48.484Z,100352.20
2018-03-27T17:16:14.594Z,100346.75
2018-03-27T17:18:40.643Z,100351.02
2018-03-27T17:21:06.652Z,100349.06
2018-03-27T17:23:32.691Z,100345.70
2018-03-27T17:25:58.752Z,100351.72
2018-03-27T17:28:24.779Z,100344.52
2018-03-27T17:31:55.494Z,100339.11
2018-03-27T17:34:21.535Z,100349.41
2018-03-27T17:36:47.638Z,100340.23
2018-03-27T17:39:17.014Z,100343.55
2018-03-27T17:41:43.064Z,100336.34
2018-03-27T17:44:09.117Z,100338.94
2018-03-27T17:46:35.185Z,100336.01
2018-03-27T17:49:01.208Z,100340.14
2018-03-27T17:51:27.284Z,100335.73
2018-03-27T17:53:53.396Z,100342.10
2018-03-27T17:56:19.550Z,100350.69
2018-03-27T17:58:45.620Z,100351.47
2018-03-27T18:01:11.694Z,100345.17
2018-03-27T18:03:37.749Z,100345.11
2018-03-27T18:06:03.813Z,100347.83
2018-03-27T18:08:30.026Z,100344.27
2018-03-27T18:10:56.158Z,100344.19
2018-03-27T18:13:22.318Z,100342.87
2018-03-27T18:15:48.464Z,100345.94
2018-03-27T18:18:14.553Z,100346.36
2018-03-27T18:20:40.683Z,100347.83
2018-03-27T18:23:06.738Z,100343.42
2018-03-27T18:25:32.809Z,100338.95
2018-03-27T18:27:58.896Z,100345.66
2018-03-27T18:30:25.025Z,100347.14
2018-03-27T18:32:51.066Z,100340.42
2018-03-27T18:35:17.101Z,100354.12
2018-03-27T18:37:43.142Z,100352.23
2018-03-27T18:40:09.319Z,100350.91
2018-03-27T18:42:35.405Z,100350.56
2018-03-27T18:45:01.482Z,100348.81
2018-03-27T18:47:27.559Z,100354.61
2018-03-27T18:49:53.625Z,100348.17
2018-03-27T18:52:19.792Z,100352.09
2018-03-27T18:54:46.017Z,100347.27
2018-03-27T18:57:12.154Z,100346.48
2018-03-27T18:59:38.281Z,100346.56
2018-03-27T19:02:04.337Z,100347.05
2018-03-27T19:04:30.359Z,100346.56
2018-03-27T19:06:56.587Z,100350.89
2018-03-27T19:09:22.755Z,100346.78
2018-03-27T19:11:48.827Z,100347.00
2018-03-27T19:14:14.935Z,100344.55
2018-03-27T19:16:41.002Z,100344.34
2018-03-27T19:19:07.150Z,100346.92
2018-03-27T19:21:33.183Z,100351.47
2018-03-27T19:23:59.273Z,100347.27
2018-03-27T19:26:25.307Z,100337.75
2018-03-27T19:28:51.344Z,100336.84
2018-03-27T19:31:17.394Z,100341.95
2018-03-27T19:33:43.430Z,100329.52
2018-03-27T19:36:11.451Z,100334.06
2018-03-27T19:38:37.793Z,100334.75
2018-03-27T19:41:03.822Z,100330.55
2018-03-27T19:43:30.568Z,100331.87
2018-03-27T19:45:56.641Z,100341.94
2018-03-27T19:48:22.721Z,100335.10
2018-03-27T19:50:48.850Z,100339.64
2018-03-27T19:53:14.906Z,100334.83
2018-03-27T19:55:41.013Z,100341.95
2018-03-27T19:58:07.116Z,100345.30
2018-03-27T20:00:33.179Z,100346.48
2018-03-27T20:02:59.235Z,100343.91
2018-03-27T20:05:25.359Z,100349.22
2018-03-27T20:07:51.390Z,100352.78
2018-03-27T20:10:17.435Z,100344.39
2018-03-27T20:12:43.534Z,100329.52
2018-03-27T20:15:09.596Z,100336.36
2018-03-27T20:17:35.680Z,100339.28
2018-03-27T20:20:01.923Z,100337.27
2018-03-27T20:22:28.948Z,100341.11
2018-03-27T20:24:55.030Z,100339.78
2018-03-27T20:27:21.081Z,100336.56
2018-03-27T20:29:47.117Z,100341.45
2018-03-27T20:32:13.204Z,100340.47
2018-03-27T20:34:39.246Z,100334.66
2018-03-27T20:37:05.396Z,100331.45
2018-03-27T20:39:31.488Z,100326.06
2018-03-27T20:41:57.595Z,100333.88
2018-03-27T20:44:23.965Z,100336.05
2018-03-27T20:46:50.041Z,100324.44
2018-03-27T20:49:16.102Z,100326.53
2018-03-27T20:51:42.255Z,100327.38
2018-03-27T20:54:09.661Z,100324.16
2018-03-27T20:56:36.419Z,100321.91
2018-03-27T20:59:02.527Z,100324.08
2018-03-27T21:01:28.570Z,100325.63
2018-03-27T21:03:54.711Z,100327.45
2018-03-27T21:06:20.758Z,100324.64
2018-03-27T21:08:46.818Z,100325.41
2018-03-27T21:11:12.880Z,100322.67
2018-03-27T21:13:38.931Z,100329.54
2018-03-27T21:16:04.960Z,100330.94
2018-03-27T21:18:31.002Z,100331.92
2018-03-27T21:20:57.066Z,100341.64
2018-03-27T21:23:23.146Z,100340.59
2018-03-27T21:25:49.194Z,100333.95
2018-03-27T21:28:15.275Z,100334.50
2018-03-27T21:30:42.356Z,100342.33
2018-03-27T21:33:08.416Z,100346.24
2018-03-27T21:35:34.570Z,100343.27
2018-03-27T21:38:00.677Z,100345.92
2018-03-27T21:40:26.682Z,100349.59
2018-03-27T21:42:52.746Z,100349.27
2018-03-27T21:45:18.806Z,100349.95
2018-03-27T21:47:44.874Z,100343.95
2018-03-27T21:50:10.902Z,100345.26
2018-03-27T21:52:36.946Z,100342.75
2018-03-27T21:55:03.006Z,100350.30
2018-03-27T21:57:29.101Z,100340.73
2018-03-27T21:59:55.143Z,100344.50
2018-03-27T22:02:47.323Z,100339.24
2018-03-27T22:05:13.537Z,100347.68
2018-03-27T22:07:39.562Z,100345.05
2018-03-27T22:10:05.739Z,100348.52
2018-03-27T22:12:31.909Z,100350.47
2018-03-27T22:14:57.919Z,100361.83
2018-03-27T22:17:23.974Z,100355.81
2018-03-27T22:19:50.078Z,100353.11
2018-03-27T22:22:16.157Z,100365.25
2018-03-27T22:24:42.186Z,100364.39
2018-03-27T22:27:08.247Z,100355.22
2018-03-27T22:29:34.323Z,100363.41
2018-03-27T22:32:00.438Z,100366.42
2018-03-27T22:34:26.464Z,100359.36
2018-03-27T22:36:52.526Z,100362.23
2018-03-27T22:39:18.703Z,100359.03
2018-03-27T22:41:44.772Z,100354.98
2018-03-27T22:44:10.875Z,100360.64
2018-03-27T22:46:36.948Z,100359.58
2018-03-27T22:49:02.998Z,100363.07
2018-03-27T22:51:36.107Z,100363.42
2018-03-27T22:54:02.315Z,100363.07
2018-03-27T22:56:28.478Z,100370.48
2018-03-27T22:58:54.492Z,100369.87
2018-03-27T23:01:20.528Z,100368.46
2018-03-27T23:03:46.561Z,100367.48
2018-03-27T23:06:12.693Z,100368.32
2018-03-27T23:08:38.710Z,100365.53
2018-03-27T23:11:04.796Z,100368.26
2018-03-27T23:13:30.824Z,100377.83
2018-03-27T23:15:56.935Z,100372.24
2018-03-27T23:18:22.987Z,100375.45
2018-03-27T23:20:49.012Z,100369.24
2018-03-27T23:23:15.037Z,100365.05
2018-03-27T23:25:41.063Z,100365.75
2018-03-27T23:28:07.120Z,100376.86
2018-03-27T23:30:33.148Z,100373.22
2018-03-27T23:32:59.182Z,100372.03
2018-03-27T23:35:25.170Z,100368.20
2018-03-27T23:37:51.210Z,100367.43
2018-03-27T23:40:17.250Z,100372.84
2018-03-27T23:42:43.299Z,100369.77
2018-03-27T23:45:09.353Z,100367.81
2018-03-27T23:47:35.402Z,100356.29
2018-03-27T23:50:01.431Z,100353.46
2018-03-27T23:52:27.509Z,100359.95
2018-03-27T23:54:53.557Z,100357.83
2018-03-27T23:57:19.695Z,100360.59
2018-03-27T23:59:45.727Z,100360.72
